createdAt,value
2019-01-03T00:02:06.155Z,91.10
2019-01-03T00:05:07.639Z,91.20
2019-01-03T00:07:55.821Z,91.20
2019-01-03T00:10:48.374Z,91.20
2019-01-03T00:13:38.051Z,91.30
2019-01-03T00:16:30.606Z,91.20
2019-01-03T00:19:18.954Z,91.30
2019-01-03T00:22:12.718Z,91.30
2019-01-03T00:25:05.058Z,91.40
2019-01-03T00:27:53.331Z,91.40
2019-01-03T00:30:54.799Z,91.60
2019-01-03T00:33:45.693Z,91.70
2019-01-03T00:36:24.155Z,91.80
2019-01-03T00:39:19.674Z,91.70
2019-01-03T00:42:09.422Z,91.80
2019-01-03T00:44:57.762Z,91.80
2019-01-03T00:47:58.061Z,91.90
2019-01-03T00:50:46.035Z,92.00
2019-01-03T00:53:38.339Z,91.90
2019-01-03T00:56:30.713Z,91.90
2019-01-03T00:59:20.407Z,91.90
2019-01-03T01:02:10.039Z,92.10
2019-01-03T01:04:58.310Z,92.10
2019-01-03T01:07:46.791Z,92.10
2019-01-03T01:10:34.926Z,92.10
2019-01-03T01:13:38.473Z,92.20
2019-01-03T01:16:38.595Z,92.10
2019-01-03T01:19:28.290Z,92.10
2019-01-03T01:22:27.094Z,92.10
2019-01-03T01:25:27.014Z,92.20
2019-01-03T01:28:19.962Z,92.30
2019-01-03T01:31:02.913Z,92.30
2019-01-03T01:33:55.304Z,92.40
2019-01-03T01:36:43.670Z,92.30
2019-01-03T01:39:33.345Z,92.40
2019-01-03T01:42:23.072Z,92.40
2019-01-03T01:45:11.131Z,92.40
2019-01-03T01:48:12.941Z,92.60
2019-01-03T02:09:08.623Z,92.90
2019-01-03T02:11:56.481Z,93.00
2019-01-03T02:14:54.570Z,93.00
2019-01-03T02:17:42.931Z,93.10
2019-01-03T02:20:39.421Z,93.10
2019-01-03T02:23:33.473Z,93.10
2019-01-03T02:26:23.538Z,93.10
2019-01-03T02:29:28.555Z,93.20
2019-01-03T02:32:16.859Z,93.20
2019-01-03T02:35:11.923Z,93.20
2019-01-03T02:37:59.487Z,93.40
2019-01-03T02:40:49.268Z,93.40
2019-01-03T02:43:41.811Z,93.40
2019-01-03T02:46:40.189Z,93.20
2019-01-03T02:49:47.927Z,93.30
2019-01-03T02:52:36.236Z,93.40
2019-01-03T02:55:24.088Z,93.40
2019-01-03T02:58:14.279Z,93.40
2019-01-03T03:01:03.960Z,93.50
2019-01-03T03:04:02.396Z,93.50
2019-01-03T03:07:06.969Z,93.70
2019-01-03T03:09:49.415Z,93.50
2019-01-03T03:12:44.664Z,93.50
2019-01-03T03:15:34.978Z,93.50
2019-01-03T03:18:30.602Z,93.50
2019-01-03T03:21:18.722Z,93.50
2019-01-03T03:24:03.613Z,93.50
2019-01-03T03:26:59.351Z,93.40
2019-01-03T03:30:01.220Z,93.40
2019-01-03T03:32:50.587Z,93.40
2019-01-03T03:35:46.139Z,93.30
2019-01-03T03:38:34.722Z,93.30
2019-01-03T03:41:39.382Z,93.20
2019-01-03T03:44:29.815Z,93.30
2019-01-03T03:47:17.916Z,93.20
2019-01-03T03:50:11.167Z,93.10
2019-01-03T03:52:59.231Z,93.10
2019-01-03T03:56:01.003Z,93.10
2019-01-03T03:58:59.534Z,93.10
2019-01-03T04:01:47.525Z,93.10
2019-01-03T04:04:35.925Z,93.10
2019-01-03T04:07:28.427Z,93.10
2019-01-03T04:10:20.714Z,93.10
2019-01-03T04:13:03.108Z,93.20
2019-01-03T04:15:52.854Z,93.10
2019-01-03T04:18:38.355Z,93.10
2019-01-03T04:21:36.785Z,93.00
2019-01-03T04:24:26.463Z,93.00
2019-01-03T04:27:30.802Z,92.90
2019-01-03T04:30:18.887Z,92.90
2019-01-03T04:33:15.884Z,93.10
2019-01-03T04:36:05.964Z,93.00
2019-01-03T04:38:54.138Z,93.00
2019-01-03T04:41:55.226Z,93.00
2019-01-03T04:44:44.890Z,93.00
2019-01-03T04:47:34.683Z,93.00
2019-01-03T04:50:31.544Z,93.00
2019-01-03T04:53:39.036Z,93.00
2019-01-03T04:56:31.611Z,93.00
2019-01-03T04:59:19.825Z,93.00
2019-01-03T05:02:09.721Z,93.10
2019-01-03T05:05:02.360Z,93.10
2019-01-03T05:08:03.394Z,93.10
2019-01-03T05:10:51.478Z,93.10
2019-01-03T05:13:42.435Z,93.20
2019-01-03T05:16:30.497Z,93.20
2019-01-03T05:19:09.289Z,93.00
2019-01-03T05:21:59.025Z,92.90
2019-01-03T05:24:51.635Z,92.90
2019-01-03T05:27:35.531Z,93.00
2019-01-03T05:30:31.423Z,93.00
2019-01-03T05:33:36.126Z,93.10
2019-01-03T05:36:31.785Z,93.40
2019-01-03T05:39:33.925Z,93.10
2019-01-03T05:42:38.204Z,93.10
2019-01-03T05:45:27.934Z,93.20
2019-01-03T05:48:16.129Z,93.20
2019-01-03T05:51:09.034Z,93.20
2019-01-03T05:53:57.432Z,93.30
2019-01-03T05:56:47.118Z,93.40
2019-01-03T05:59:35.519Z,93.50
2019-01-03T06:02:37.155Z,93.50
2019-01-03T06:05:25.652Z,93.50
2019-01-03T06:08:14.024Z,93.60
2019-01-03T06:11:09.593Z,93.50
2019-01-03T06:13:57.824Z,93.50
2019-01-03T06:16:45.954Z,93.50
2019-01-03T06:19:33.919Z,93.50
2019-01-03T06:22:22.271Z,93.50
2019-01-03T06:25:26.966Z,93.60
2019-01-03T06:28:14.914Z,93.60
2019-01-03T06:31:01.380Z,93.60
2019-01-03T06:34:06.187Z,93.70
2019-01-03T06:36:48.826Z,93.70
2019-01-03T06:39:41.270Z,93.80
2019-01-03T06:42:29.156Z,93.90
2019-01-03T06:45:17.318Z,94.10
2019-01-03T06:48:20.044Z,94.20
2019-01-03T06:51:07.741Z,94.40
2019-01-03T06:54:12.550Z,94.40
2019-01-03T06:57:02.385Z,94.40
2019-01-03T06:59:52.081Z,94.30
2019-01-03T07:02:41.789Z,94.40
2019-01-03T07:05:27.173Z,94.50
2019-01-03T07:08:19.654Z,94.50
2019-01-03T07:11:14.941Z,94.60
2019-01-03T07:14:12.509Z,94.50
2019-01-03T07:17:07.852Z,94.50
2019-01-03T07:20:00.471Z,94.70
2019-01-03T07:23:08.098Z,94.40
2019-01-03T07:26:05.253Z,94.40
2019-01-03T07:29:04.064Z,94.40
2019-01-03T07:31:52.341Z,94.50
2019-01-03T07:34:42.141Z,94.50
2019-01-03T07:37:40.574Z,94.50
2019-01-03T07:40:33.100Z,94.50
2019-01-03T07:43:20.498Z,94.40
2019-01-03T07:46:01.982Z,94.40
2019-01-03T07:48:54.570Z,94.50
2019-01-03T07:52:00.007Z,94.50
2019-01-03T07:54:51.585Z,94.60
2019-01-03T07:57:40.061Z,94.60
2019-01-03T08:00:32.381Z,94.70
2019-01-03T08:03:20.869Z,94.80
2019-01-03T08:06:04.474Z,94.90
2019-01-03T08:08:59.876Z,94.90
2019-01-03T08:11:48.037Z,94.90
2019-01-03T08:14:37.444Z,94.90
2019-01-03T08:17:27.187Z,94.90
2019-01-03T08:20:29.058Z,95.00
2019-01-03T08:23:22.358Z,95.00
2019-01-03T08:26:10.419Z,95.10
2019-01-03T08:29:02.890Z,95.10
2019-01-03T08:31:51.202Z,95.10
2019-01-03T08:34:44.267Z,95.10
2019-01-03T08:37:41.197Z,95.10
2019-01-03T08:40:29.583Z,95.10
2019-01-03T08:43:34.148Z,95.10
2019-01-03T08:46:22.309Z,95.00
2019-01-03T08:49:06.527Z,94.90
2019-01-03T08:51:56.402Z,94.80
2019-01-03T08:54:44.418Z,94.70
2019-01-03T08:57:32.160Z,94.60
2019-01-03T09:00:36.041Z,94.50
2019-01-03T09:03:23.950Z,94.50
2019-01-03T09:06:25.686Z,94.40
2019-01-03T09:09:16.763Z,94.20
2019-01-03T09:12:05.093Z,94.10
2019-01-03T09:15:09.517Z,94.00
2019-01-03T09:17:59.262Z,94.00
2019-01-03T09:20:58.026Z,94.00
2019-01-03T09:23:46.685Z,93.80
2019-01-03T09:26:41.437Z,93.70
2019-01-03T09:29:40.926Z,93.60
2019-01-03T09:32:34.911Z,93.50
2019-01-03T09:35:30.522Z,93.20
2019-01-03T09:38:11.643Z,93.10
2019-01-03T09:41:00.915Z,93.10
2019-01-03T09:43:44.608Z,93.10
2019-01-03T09:46:16.929Z,93.10
2019-01-03T09:48:49.364Z,92.50
2019-01-03T09:51:20.201Z,92.20
2019-01-03T09:53:52.154Z,92.10
2019-01-03T09:56:22.938Z,92.10
2019-01-03T09:58:53.743Z,92.00
2019-01-03T10:01:25.153Z,92.20
2019-01-03T10:03:56.945Z,91.90
2019-01-03T10:06:27.858Z,91.70
2019-01-03T10:08:58.687Z,91.70
2019-01-03T10:11:29.530Z,91.80
2019-01-03T10:14:00.294Z,91.80
2019-01-03T10:16:31.111Z,91.60
2019-01-03T10:19:02.325Z,91.80
2019-01-03T10:21:33.147Z,91.80
2019-01-03T10:24:03.885Z,91.80
2019-01-03T10:26:34.763Z,91.40
2019-01-03T10:29:05.812Z,90.90
2019-01-03T10:31:36.686Z,90.60
2019-01-03T10:34:07.375Z,90.30
2019-01-03T10:36:38.606Z,90.40
2019-01-03T10:39:10.970Z,90.80
2019-01-03T10:41:41.730Z,90.70
2019-01-03T10:44:12.446Z,90.90
2019-01-03T10:46:43.232Z,90.80
2019-01-03T10:49:13.985Z,90.80
2019-01-03T10:51:44.762Z,90.70
2019-01-03T10:54:53.058Z,90.70
2019-01-03T10:57:25.839Z,90.30
2019-01-03T10:59:56.595Z,90.10
2019-01-03T11:02:27.586Z,90.20
2019-01-03T11:04:58.358Z,90.20
2019-01-03T11:07:29.097Z,90.00
2019-01-03T11:10:00.002Z,90.00
2019-01-03T11:12:30.804Z,89.90
2019-01-03T11:15:01.601Z,89.60
2019-01-03T11:17:34.158Z,88.10
2019-01-03T11:20:05.869Z,88.40
2019-01-03T11:22:36.536Z,86.90
2019-01-03T11:25:07.238Z,85.60
2019-01-03T11:27:38.382Z,83.30
2019-01-03T11:30:09.860Z,81.30
2019-01-03T11:32:40.936Z,79.80
2019-01-03T11:35:11.706Z,76.20
2019-01-03T11:37:42.506Z,67.40
2019-01-03T11:40:14.518Z,62.60
2019-01-03T11:42:45.415Z,61.90
2019-01-03T11:45:16.172Z,58.40
2019-01-03T11:48:04.160Z,56.00
2019-01-03T11:50:34.981Z,54.50
2019-01-03T11:53:07.922Z,60.90
2019-01-03T11:55:38.690Z,66.90
2019-01-03T11:58:09.597Z,71.00
2019-01-03T12:00:40.522Z,72.90
2019-01-03T12:03:11.514Z,72.60
2019-01-03T12:05:45.665Z,72.60
2019-01-03T12:08:16.595Z,74.10
2019-01-03T12:10:47.363Z,73.60
2019-01-03T12:13:18.507Z,72.10
2019-01-03T12:15:49.722Z,70.70
2019-01-03T12:18:20.490Z,67.60
2019-01-03T12:20:51.390Z,65.70
2019-01-03T12:23:23.602Z,65.40
2019-01-03T12:25:54.393Z,67.50
2019-01-03T12:28:25.099Z,70.20
2019-01-03T12:30:55.960Z,72.50
2019-01-03T12:33:26.663Z,73.80
2019-01-03T12:35:57.386Z,73.70
2019-01-03T12:38:28.118Z,74.20
2019-01-03T12:40:58.942Z,73.80
2019-01-03T12:43:29.642Z,73.50
2019-01-03T12:46:00.458Z,73.50
2019-01-03T12:48:31.245Z,73.80
2019-01-03T12:51:07.234Z,74.60
2019-01-03T12:54:02.542Z,75.70
2019-01-03T12:56:49.883Z,76.10
2019-01-03T12:59:21.387Z,76.00
2019-01-03T13:01:54.575Z,76.50
2019-01-03T13:07:36.851Z,74.70
2019-01-03T13:10:09.092Z,72.70
2019-01-03T13:12:39.891Z,72.50
2019-01-03T13:15:10.746Z,74.10
2019-01-03T13:17:41.575Z,76.10
2019-01-03T13:20:12.438Z,77.00
2019-01-03T13:22:43.689Z,77.40
2019-01-03T13:25:14.498Z,77.80
2019-01-03T13:27:45.530Z,78.80
2019-01-03T13:30:16.513Z,79.70
2019-01-03T13:32:47.335Z,81.40
2019-01-03T13:35:19.820Z,82.00
2019-01-03T13:37:50.780Z,82.40
2019-01-03T13:40:23.035Z,82.00
2019-01-03T13:42:54.027Z,82.10
2019-01-03T13:45:29.010Z,82.30
2019-01-03T13:47:59.738Z,82.20
2019-01-03T13:50:30.530Z,81.50
2019-01-03T13:53:02.542Z,80.20
2019-01-03T13:55:33.212Z,77.60
2019-01-03T13:58:04.025Z,70.50
2019-01-03T14:00:34.737Z,62.00
2019-01-03T14:03:06.853Z,55.50
2019-01-03T14:05:37.600Z,52.60
2019-01-03T14:08:08.295Z,50.50
2019-01-03T14:10:38.926Z,50.30
2019-01-03T14:13:09.698Z,47.90
2019-01-03T14:15:40.460Z,46.80
2019-01-03T14:18:11.166Z,48.40
2019-01-03T14:20:41.810Z,50.40
2019-01-03T14:23:12.619Z,54.70
2019-01-03T14:25:43.398Z,54.60
2019-01-03T14:28:14.178Z,57.80
2019-01-03T14:30:44.916Z,58.50
2019-01-03T14:33:15.645Z,57.90
2019-01-03T14:35:46.469Z,59.70
2019-01-03T14:38:17.316Z,60.00
2019-01-03T14:40:48.009Z,61.00
2019-01-03T14:43:18.777Z,64.50
2019-01-03T14:45:49.519Z,66.90
2019-01-03T14:48:20.321Z,70.90
2019-01-03T14:50:51.036Z,73.80
2019-01-03T14:53:21.686Z,75.30
2019-01-03T14:55:52.353Z,77.20
2019-01-03T14:58:23.272Z,77.80
2019-01-03T15:00:54.059Z,79.10
2019-01-03T15:03:24.811Z,79.40
2019-01-03T15:05:55.503Z,80.90
2019-01-03T15:08:27.246Z,81.40
2019-01-03T15:10:58.121Z,82.50
2019-01-03T15:13:28.879Z,83.00
2019-01-03T15:15:59.586Z,84.10
2019-01-03T15:18:30.503Z,84.30
2019-01-03T15:21:01.201Z,85.40
2019-01-03T15:23:31.858Z,86.20
2019-01-03T15:26:02.574Z,86.10
2019-01-03T15:28:33.323Z,87.20
2019-01-03T15:31:04.057Z,87.30
2019-01-03T15:33:34.855Z,87.90
2019-01-03T15:36:05.551Z,88.40
2019-01-03T15:38:37.099Z,89.10
2019-01-03T15:41:07.714Z,89.20
2019-01-03T15:43:39.640Z,89.20
2019-01-03T15:46:10.358Z,89.60
2019-01-03T15:48:41.289Z,90.00
2019-01-03T15:51:12.037Z,90.10
2019-01-03T15:53:42.826Z,90.00
2019-01-03T15:56:13.609Z,90.30
2019-01-03T15:58:44.343Z,90.60
2019-01-03T16:01:15.066Z,90.90
2019-01-03T16:03:47.425Z,90.80
2019-01-03T16:06:18.201Z,91.00
2019-01-03T16:08:49.146Z,91.20
2019-01-03T16:11:22.290Z,91.50
2019-01-03T16:13:53.096Z,91.70
2019-01-03T16:16:24.000Z,91.80
2019-01-03T16:18:57.145Z,91.80
2019-01-03T16:21:28.183Z,92.00
2019-01-03T16:24:37.578Z,92.10
2019-01-03T16:27:11.022Z,92.20
2019-01-03T16:29:42.000Z,92.40
2019-01-03T16:32:15.553Z,92.50
2019-01-03T16:34:46.621Z,92.70
2019-01-03T16:37:17.613Z,92.80
2019-01-03T16:39:50.368Z,92.90
2019-01-03T16:42:21.417Z,92.90
2019-01-03T16:44:54.050Z,93.00
2019-01-03T16:47:26.519Z,93.10
2019-01-03T16:49:57.455Z,93.00
2019-01-03T16:52:28.269Z,93.30
2019-01-03T16:54:59.994Z,93.30
2019-01-03T16:57:30.924Z,93.40
2019-01-03T17:00:05.432Z,93.50
2019-01-03T17:02:38.120Z,93.50
2019-01-03T17:05:11.069Z,93.50
2019-01-03T17:07:43.554Z,93.70
2019-01-03T17:10:37.277Z,93.90
2019-01-03T17:13:09.560Z,94.00
2019-01-03T17:15:43.675Z,94.10
2019-01-03T17:18:14.660Z,94.20
2019-01-03T17:20:47.131Z,94.30
2019-01-03T17:23:18.002Z,94.40
2019-01-03T17:25:48.979Z,94.40
2019-01-03T17:28:19.896Z,94.40
2019-01-03T17:30:50.748Z,94.50
2019-01-03T17:33:22.131Z,94.40
2019-01-03T17:35:54.821Z,94.70
2019-01-03T17:38:27.050Z,94.10
2019-01-03T17:41:04.986Z,94.10
2019-01-03T17:43:37.101Z,94.00
2019-01-03T17:46:07.973Z,94.00
2019-01-03T17:48:42.359Z,94.10
2019-01-03T17:51:14.590Z,94.20
2019-01-03T17:53:49.283Z,94.10
2019-01-03T17:56:24.849Z,94.00
2019-01-03T17:58:55.827Z,93.90
2019-01-03T18:01:29.138Z,93.90
2019-01-03T18:04:00.028Z,93.90
2019-01-03T18:06:30.853Z,94.10
2019-01-03T18:09:02.246Z,94.30
2019-01-03T18:11:34.047Z,94.50
2019-01-03T18:14:04.686Z,94.60
2019-01-03T18:16:35.454Z,94.60
2019-01-03T18:19:06.173Z,94.80
2019-01-03T18:21:36.975Z,94.80
2019-01-03T18:24:07.704Z,94.90
2019-01-03T18:26:38.511Z,94.70
2019-01-03T18:29:10.330Z,94.70
2019-01-03T18:31:42.636Z,94.70
2019-01-03T18:34:13.751Z,94.80
2019-01-03T18:36:44.685Z,94.60
2019-01-03T18:39:15.690Z,94.60
2019-01-03T18:41:46.475Z,94.60
2019-01-03T18:44:17.227Z,94.70
2019-01-03T18:46:48.136Z,94.80
2019-01-03T18:49:19.700Z,94.90
2019-01-03T18:51:50.896Z,94.90
2019-01-03T18:54:21.622Z,95.00
2019-01-03T18:56:52.275Z,95.10
2019-01-03T18:59:23.029Z,95.20
2019-01-03T19:01:55.474Z,95.30
2019-01-03T19:04:28.980Z,95.30
2019-01-03T19:07:00.007Z,95.40
2019-01-03T19:09:31.694Z,95.40
2019-01-03T19:12:09.804Z,95.40
2019-01-03T19:14:40.839Z,95.50
2019-01-03T19:17:11.599Z,95.40
2019-01-03T19:19:42.327Z,95.50
2019-01-03T19:22:17.746Z,95.60
2019-01-03T19:24:48.817Z,95.50
2019-01-03T19:27:20.823Z,95.50
2019-01-03T19:29:53.811Z,95.50
2019-01-03T19:32:24.659Z,95.60
2019-01-03T19:34:55.465Z,95.70
2019-01-03T19:37:26.339Z,95.70
2019-01-03T19:40:00.114Z,95.70
2019-01-03T19:42:30.883Z,95.90
2019-01-03T19:45:01.688Z,95.90
2019-01-03T19:47:32.571Z,95.90
2019-01-03T19:50:03.623Z,95.80
2019-01-03T19:52:34.796Z,95.90
2019-01-03T19:55:06.054Z,95.70
2019-01-03T19:57:36.903Z,95.70
2019-01-03T20:00:11.855Z,95.80
2019-01-03T20:02:42.236Z,95.90
2019-01-03T20:05:13.376Z,95.90
2019-01-03T20:07:44.686Z,96.00
2019-01-03T20:10:15.698Z,95.90
2019-01-03T20:12:46.460Z,96.00
2019-01-03T20:15:17.317Z,96.00
2019-01-03T20:17:48.162Z,96.00
2019-01-03T20:20:18.959Z,96.10
2019-01-03T20:22:51.011Z,96.20
2019-01-03T20:25:24.688Z,96.20
2019-01-03T20:27:55.492Z,96.20
2019-01-03T20:30:26.359Z,96.20
2019-01-03T20:32:57.468Z,96.20
2019-01-03T20:35:28.269Z,96.20
2019-01-03T20:37:59.609Z,96.20
2019-01-03T20:40:31.459Z,96.10
2019-01-03T20:43:03.355Z,96.10
2019-01-03T20:45:34.548Z,96.00
2019-01-03T20:48:05.503Z,95.90
2019-01-03T20:50:36.435Z,95.90
2019-01-03T20:53:07.322Z,96.10
2019-01-03T20:55:40.410Z,95.80
2019-01-03T20:58:10.867Z,95.80
2019-01-03T21:00:41.705Z,95.80
2019-01-03T21:03:12.870Z,95.80
2019-01-03T21:05:43.827Z,95.80
2019-01-03T21:08:14.775Z,95.90
2019-01-03T21:10:45.615Z,95.90
2019-01-03T21:13:16.447Z,95.90
2019-01-03T21:15:47.336Z,96.00
2019-01-03T21:18:18.575Z,96.10
2019-01-03T21:20:49.385Z,96.10
2019-01-03T21:23:20.197Z,96.10
2019-01-03T21:25:51.009Z,96.10
2019-01-03T21:28:21.998Z,96.10
2019-01-03T21:30:52.824Z,96.10
2019-01-03T21:33:23.569Z,96.10
2019-01-03T21:35:54.368Z,96.30
2019-01-03T21:38:25.303Z,96.30
2019-01-03T21:40:56.335Z,96.30
2019-01-03T21:43:27.340Z,96.30
2019-01-03T21:45:58.156Z,96.40
2019-01-03T21:48:29.834Z,96.30
2019-01-03T21:51:00.770Z,96.30
2019-01-03T21:53:33.073Z,96.30
2019-01-03T21:56:04.197Z,96.30
2019-01-03T21:58:35.210Z,96.30
2019-01-03T22:01:06.371Z,96.30
2019-01-03T22:03:37.300Z,96.40
2019-01-03T22:06:09.810Z,96.40
2019-01-03T22:08:40.508Z,96.40
2019-01-03T22:11:11.252Z,96.40
2019-01-03T22:13:42.284Z,96.50
2019-01-03T22:16:13.062Z,96.40
2019-01-03T22:18:43.920Z,96.40
2019-01-03T22:21:15.683Z,96.40
2019-01-03T22:23:46.487Z,96.40
2019-01-03T22:26:17.331Z,96.50
2019-01-03T22:28:48.386Z,96.50
2019-01-03T22:31:20.263Z,96.40
2019-01-03T22:33:51.161Z,96.40
2019-01-03T22:36:21.960Z,96.40
2019-01-03T22:38:52.850Z,96.40
2019-01-03T22:41:23.657Z,96.40
2019-01-03T22:43:54.683Z,96.40
2019-01-03T22:46:26.220Z,96.40
2019-01-03T22:48:57.007Z,96.40
2019-01-03T22:51:27.823Z,96.30
2019-01-03T22:53:58.642Z,96.30
2019-01-03T22:56:29.586Z,96.30
2019-01-03T22:59:00.357Z,96.30
2019-01-03T23:01:30.990Z,96.30
2019-01-03T23:04:01.686Z,96.20
2019-01-03T23:06:32.297Z,96.30
2019-01-03T23:09:03.361Z,96.20
2019-01-03T23:11:35.086Z,96.20
2019-01-03T23:14:05.874Z,96.30
2019-01-03T23:16:38.250Z,96.20
2019-01-03T23:19:09.036Z,96.20
2019-01-03T23:21:39.763Z,96.20
2019-01-03T23:24:10.523Z,96.20
2019-01-03T23:26:41.322Z,96.30
2019-01-03T23:29:13.549Z,96.30
2019-01-03T23:31:44.345Z,96.20
2019-01-03T23:34:15.182Z,96.20
2019-01-03T23:36:45.921Z,96.10
2019-01-03T23:39:16.618Z,96.20
2019-01-03T23:41:48.953Z,96.40
2019-01-03T23:44:19.710Z,96.10
2019-01-03T23:46:50.602Z,96.10
2019-01-03T23:49:21.346Z,96.20
2019-01-03T23:51:52.009Z,96.20
2019-01-03T23:54:22.754Z,96.20
2019-01-03T23:56:53.517Z,96.20
2019-01-03T23:59:25.558Z,96.20
